sensor_id;sensor_type;location;lat;lon;timestamp;P1;durP1;ratioP1;P2;durP2;ratioP2
18997;SDS011;9632;51.018;4.284;2023-08-01T00:00:38;8.52;;;2.60;;
18997;SDS011;9632;51.018;4.284;2023-08-01T00:03:03;6.90;;;2.22;;
18997;SDS011;9632;51.018;4.284;2023-08-01T00:05:29;8.18;;;2.63;;
18997;SDS011;9632;51.018;4.284;2023-08-01T00:07:55;6.72;;;2.75;;
18997;SDS011;9632;51.018;4.284;2023-08-01T00:10:20;9.35;;;2.72;;
18997;SDS011;9632;51.018;4.284;2023-08-01T00:12:46;12.88;;;3.38;;
18997;SDS011;9632;51.018;4.284;2023-08-01T00:15:11;8.50;;;3.05;;
18997;SDS011;9632;51.018;4.284;2023-08-01T00:17:37;10.27;;;2.83;;
18997;SDS011;9632;51.018;4.284;2023-08-01T00:20:03;8.63;;;2.88;;
18997;SDS011;9632;51.018;4.284;2023-08-01T00:22:29;9.45;;;3.33;;
18997;SDS011;9632;51.018;4.284;2023-08-01T00:24:55;12.48;;;3.45;;
18997;SDS011;9632;51.018;4.284;2023-08-01T00:27:20;10.35;;;3.20;;
18997;SDS011;9632;51.018;4.284;2023-08-01T00:29:46;7.75;;;3.20;;
18997;SDS011;9632;51.018;4.284;2023-08-01T00:32:12;10.18;;;3.25;;
18997;SDS011;9632;51.018;4.284;2023-08-01T00:34:37;9.57;;;3.85;;
18997;SDS011;9632;51.018;4.284;2023-08-01T00:37:03;7.93;;;3.40;;
18997;SDS011;9632;51.018;4.284;2023-08-01T00:39:29;9.13;;;3.83;;
18997;SDS011;9632;51.018;4.284;2023-08-01T00:41:55;13.57;;;3.97;;
18997;SDS011;9632;51.018;4.284;2023-08-01T00:44:21;8.93;;;3.58;;
18997;SDS011;9632;51.018;4.284;2023-08-01T00:46:47;9.60;;;3.80;;
18997;SDS011;9632;51.018;4.284;2023-08-01T00:49:13;11.40;;;3.90;;
18997;SDS011;9632;51.018;4.284;2023-08-01T00:51:39;9.25;;;3.28;;
18997;SDS011;9632;51.018;4.284;2023-08-01T00:54:05;8.70;;;3.72;;
18997;SDS011;9632;51.018;4.284;2023-08-01T00:56:31;10.02;;;3.92;;
18997;SDS011;9632;51.018;4.284;2023-08-01T00:58:57;10.85;;;3.70;;
18997;SDS011;9632;51.018;4.284;2023-08-01T01:01:23;9.90;;;3.50;;
18997;SDS011;9632;51.018;4.284;2023-08-01T01:03:50;8.10;;;3.22;;
18997;SDS011;9632;51.018;4.284;2023-08-01T01:08:44;12.10;;;4.22;;
18997;SDS011;9632;51.018;4.284;2023-08-01T01:11:10;11.05;;;3.85;;
18997;SDS011;9632;51.018;4.284;2023-08-01T01:13:36;10.77;;;4.07;;
18997;SDS011;9632;51.018;4.284;2023-08-01T01:16:02;10.40;;;4.05;;
18997;SDS011;9632;51.018;4.284;2023-08-01T01:18:28;13.70;;;4.75;;
18997;SDS011;9632;51.018;4.284;2023-08-01T01:20:53;10.57;;;3.92;;
18997;SDS011;9632;51.018;4.284;2023-08-01T01:23:19;9.68;;;4.30;;
18997;SDS011;9632;51.018;4.284;2023-08-01T01:25:46;14.65;;;4.43;;
18997;SDS011;9632;51.018;4.284;2023-08-01T01:28:12;9.57;;;3.55;;
18997;SDS011;9632;51.018;4.284;2023-08-01T01:30:39;8.60;;;3.88;;
18997;SDS011;9632;51.018;4.284;2023-08-01T01:33:06;10.68;;;4.18;;
18997;SDS011;9632;51.018;4.284;2023-08-01T01:35:33;9.40;;;3.97;;
18997;SDS011;9632;51.018;4.284;2023-08-01T01:37:59;13.57;;;4.85;;
18997;SDS011;9632;51.018;4.284;2023-08-01T01:40:28;9.60;;;4.80;;
18997;SDS011;9632;51.018;4.284;2023-08-01T01:42:55;12.55;;;4.60;;
18997;SDS011;9632;51.018;4.284;2023-08-01T01:45:21;13.80;;;5.35;;
18997;SDS011;9632;51.018;4.284;2023-08-01T01:47:46;17.52;;;5.35;;
18997;SDS011;9632;51.018;4.284;2023-08-01T01:50:12;15.98;;;5.07;;
18997;SDS011;9632;51.018;4.284;2023-08-01T01:52:37;14.30;;;5.03;;
18997;SDS011;9632;51.018;4.284;2023-08-01T01:55:03;12.68;;;5.03;;
18997;SDS011;9632;51.018;4.284;2023-08-01T01:57:29;9.10;;;4.18;;
18997;SDS011;9632;51.018;4.284;2023-08-01T01:59:55;12.98;;;5.15;;
18997;SDS011;9632;51.018;4.284;2023-08-01T02:02:20;11.88;;;5.07;;
18997;SDS011;9632;51.018;4.284;2023-08-01T02:04:46;12.35;;;5.55;;
18997;SDS011;9632;51.018;4.284;2023-08-01T02:07:13;15.50;;;6.20;;
18997;SDS011;9632;51.018;4.284;2023-08-01T02:09:39;15.00;;;6.05;;
18997;SDS011;9632;51.018;4.284;2023-08-01T02:12:05;17.35;;;6.43;;
18997;SDS011;9632;51.018;4.284;2023-08-01T02:14:33;14.48;;;6.43;;
18997;SDS011;9632;51.018;4.284;2023-08-01T02:16:58;16.50;;;7.07;;
18997;SDS011;9632;51.018;4.284;2023-08-01T02:19:24;16.83;;;7.57;;
18997;SDS011;9632;51.018;4.284;2023-08-01T02:21:50;20.50;;;7.85;;
18997;SDS011;9632;51.018;4.284;2023-08-01T02:24:15;18.80;;;8.15;;
18997;SDS011;9632;51.018;4.284;2023-08-01T02:26:41;18.63;;;8.18;;
18997;SDS011;9632;51.018;4.284;2023-08-01T02:29:06;22.15;;;9.30;;
18997;SDS011;9632;51.018;4.284;2023-08-01T02:31:32;19.30;;;9.93;;
18997;SDS011;9632;51.018;4.284;2023-08-01T02:33:58;19.73;;;9.50;;
18997;SDS011;9632;51.018;4.284;2023-08-01T02:36:23;22.38;;;10.32;;
18997;SDS011;9632;51.018;4.284;2023-08-01T02:38:49;20.50;;;9.50;;
18997;SDS011;9632;51.018;4.284;2023-08-01T02:41:15;17.92;;;8.95;;
18997;SDS011;9632;51.018;4.284;2023-08-01T02:43:40;17.98;;;9.68;;
18997;SDS011;9632;51.018;4.284;2023-08-01T02:46:06;19.25;;;9.07;;
18997;SDS011;9632;51.018;4.284;2023-08-01T02:48:32;23.15;;;9.75;;
18997;SDS011;9632;51.018;4.284;2023-08-01T02:50:57;23.33;;;9.38;;
18997;SDS011;9632;51.018;4.284;2023-08-01T02:53:23;21.60;;;9.70;;
18997;SDS011;9632;51.018;4.284;2023-08-01T02:55:49;22.67;;;10.30;;
18997;SDS011;9632;51.018;4.284;2023-08-01T02:58:15;22.15;;;9.45;;
18997;SDS011;9632;51.018;4.284;2023-08-01T03:00:40;17.90;;;9.80;;
18997;SDS011;9632;51.018;4.284;2023-08-01T03:03:06;21.35;;;9.57;;
18997;SDS011;9632;51.018;4.284;2023-08-01T03:05:32;20.58;;;10.27;;
18997;SDS011;9632;51.018;4.284;2023-08-01T03:08:00;28.02;;;11.27;;
18997;SDS011;9632;51.018;4.284;2023-08-01T03:10:27;22.80;;;10.95;;
18997;SDS011;9632;51.018;4.284;2023-08-01T03:12:52;22.42;;;10.85;;
18997;SDS011;9632;51.018;4.284;2023-08-01T03:15:18;21.05;;;10.50;;
18997;SDS011;9632;51.018;4.284;2023-08-01T03:17:44;22.88;;;10.85;;
18997;SDS011;9632;51.018;4.284;2023-08-01T03:20:09;21.25;;;10.00;;
18997;SDS011;9632;51.018;4.284;2023-08-01T03:22:37;22.27;;;10.45;;
18997;SDS011;9632;51.018;4.284;2023-08-01T03:25:07;21.20;;;9.77;;
18997;SDS011;9632;51.018;4.284;2023-08-01T03:27:35;25.08;;;11.15;;
18997;SDS011;9632;51.018;4.284;2023-08-01T03:30:02;26.60;;;11.88;;
18997;SDS011;9632;51.018;4.284;2023-08-01T03:32:29;26.45;;;11.63;;
18997;SDS011;9632;51.018;4.284;2023-08-01T03:34:55;24.80;;;10.45;;
18997;SDS011;9632;51.018;4.284;2023-08-01T03:37:21;25.15;;;11.13;;
18997;SDS011;9632;51.018;4.284;2023-08-01T03:39:47;28.27;;;11.10;;
18997;SDS011;9632;51.018;4.284;2023-08-01T03:42:12;25.42;;;11.40;;
18997;SDS011;9632;51.018;4.284;2023-08-01T03:44:38;23.30;;;10.00;;
18997;SDS011;9632;51.018;4.284;2023-08-01T03:47:04;24.15;;;10.00;;
18997;SDS011;9632;51.018;4.284;2023-08-01T03:49:29;23.73;;;8.77;;
18997;SDS011;9632;51.018;4.284;2023-08-01T03:51:55;21.60;;;9.23;;
18997;SDS011;9632;51.018;4.284;2023-08-01T03:54:21;26.13;;;9.77;;
18997;SDS011;9632;51.018;4.284;2023-08-01T03:56:46;27.98;;;9.63;;
18997;SDS011;9632;51.018;4.284;2023-08-01T03:59:12;23.20;;;9.30;;
18997;SDS011;9632;51.018;4.284;2023-08-01T04:01:39;23.60;;;9.15;;
18997;SDS011;9632;51.018;4.284;2023-08-01T04:04:05;24.10;;;9.48;;
18997;SDS011;9632;51.018;4.284;2023-08-01T04:06:30;23.38;;;9.52;;
18997;SDS011;9632;51.018;4.284;2023-08-01T04:08:56;19.52;;;9.23;;
18997;SDS011;9632;51.018;4.284;2023-08-01T04:11:22;20.30;;;8.85;;
18997;SDS011;9632;51.018;4.284;2023-08-01T04:13:48;23.80;;;9.35;;
18997;SDS011;9632;51.018;4.284;2023-08-01T04:16:13;25.98;;;9.00;;
18997;SDS011;9632;51.018;4.284;2023-08-01T04:18:39;17.88;;;8.50;;
18997;SDS011;9632;51.018;4.284;2023-08-01T04:21:05;23.40;;;9.10;;
18997;SDS011;9632;51.018;4.284;2023-08-01T04:23:32;19.77;;;9.18;;
18997;SDS011;9632;51.018;4.284;2023-08-01T04:25:58;24.75;;;8.55;;
18997;SDS011;9632;51.018;4.284;2023-08-01T04:28:24;24.65;;;8.57;;
18997;SDS011;9632;51.018;4.284;2023-08-01T04:30:50;19.27;;;8.23;;
18997;SDS011;9632;51.018;4.284;2023-08-01T04:33:16;20.38;;;8.70;;
18997;SDS011;9632;51.018;4.284;2023-08-01T04:35:42;25.83;;;8.75;;
18997;SDS011;9632;51.018;4.284;2023-08-01T04:38:08;20.02;;;8.55;;
18997;SDS011;9632;51.018;4.284;2023-08-01T04:40:35;18.73;;;8.40;;
18997;SDS011;9632;51.018;4.284;2023-08-01T04:43:01;21.10;;;8.52;;
18997;SDS011;9632;51.018;4.284;2023-08-01T04:45:27;18.58;;;8.60;;
18997;SDS011;9632;51.018;4.284;2023-08-01T04:47:53;20.35;;;8.25;;
18997;SDS011;9632;51.018;4.284;2023-08-01T04:50:18;24.88;;;8.18;;
18997;SDS011;9632;51.018;4.284;2023-08-01T04:52:44;25.60;;;8.43;;
18997;SDS011;9632;51.018;4.284;2023-08-01T04:55:10;21.05;;;7.80;;
18997;SDS011;9632;51.018;4.284;2023-08-01T04:57:35;20.27;;;8.40;;
18997;SDS011;9632;51.018;4.284;2023-08-01T05:00:01;23.50;;;8.75;;
18997;SDS011;9632;51.018;4.284;2023-08-01T05:02:28;23.98;;;8.85;;
18997;SDS011;9632;51.018;4.284;2023-08-01T05:04:54;26.38;;;8.60;;
18997;SDS011;9632;51.018;4.284;2023-08-01T05:07:19;22.13;;;8.20;;
18997;SDS011;9632;51.018;4.284;2023-08-01T05:09:45;22.52;;;8.25;;
18997;SDS011;9632;51.018;4.284;2023-08-01T05:12:10;21.52;;;8.15;;
18997;SDS011;9632;51.018;4.284;2023-08-01T05:14:36;21.52;;;7.93;;
18997;SDS011;9632;51.018;4.284;2023-08-01T05:17:02;25.20;;;8.35;;
18997;SDS011;9632;51.018;4.284;2023-08-01T05:19:27;21.73;;;7.40;;
18997;SDS011;9632;51.018;4.284;2023-08-01T05:21:53;28.55;;;8.00;;
18997;SDS011;9632;51.018;4.284;2023-08-01T05:24:20;24.05;;;8.00;;
18997;SDS011;9632;51.018;4.284;2023-08-01T05:26:46;19.80;;;7.63;;
18997;SDS011;9632;51.018;4.284;2023-08-01T05:29:12;19.55;;;7.80;;
18997;SDS011;9632;51.018;4.284;2023-08-01T05:31:37;19.73;;;7.03;;
18997;SDS011;9632;51.018;4.284;2023-08-01T05:34:03;18.98;;;7.32;;
18997;SDS011;9632;51.018;4.284;2023-08-01T05:36:29;20.75;;;7.60;;
18997;SDS011;9632;51.018;4.284;2023-08-01T05:38:56;23.17;;;7.80;;
18997;SDS011;9632;51.018;4.284;2023-08-01T05:41:22;26.15;;;8.20;;
18997;SDS011;9632;51.018;4.284;2023-08-01T05:43:48;24.02;;;8.07;;
18997;SDS011;9632;51.018;4.284;2023-08-01T05:46:14;22.30;;;8.38;;
18997;SDS011;9632;51.018;4.284;2023-08-01T05:48:40;28.33;;;8.60;;
18997;SDS011;9632;51.018;4.284;2023-08-01T05:51:06;22.90;;;8.27;;
18997;SDS011;9632;51.018;4.284;2023-08-01T05:53:32;22.15;;;8.23;;
18997;SDS011;9632;51.018;4.284;2023-08-01T05:55:58;26.10;;;8.70;;
18997;SDS011;9632;51.018;4.284;2023-08-01T05:58:23;20.13;;;9.23;;
18997;SDS011;9632;51.018;4.284;2023-08-01T06:00:49;21.58;;;8.52;;
18997;SDS011;9632;51.018;4.284;2023-08-01T06:03:15;27.23;;;9.05;;
18997;SDS011;9632;51.018;4.284;2023-08-01T06:05:41;26.80;;;8.90;;
18997;SDS011;9632;51.018;4.284;2023-08-01T06:08:07;20.80;;;9.02;;
18997;SDS011;9632;51.018;4.284;2023-08-01T06:10:33;19.25;;;8.77;;
18997;SDS011;9632;51.018;4.284;2023-08-01T06:13:02;24.48;;;9.10;;
18997;SDS011;9632;51.018;4.284;2023-08-01T06:15:28;21.83;;;8.63;;
18997;SDS011;9632;51.018;4.284;2023-08-01T06:17:53;29.05;;;8.80;;
18997;SDS011;9632;51.018;4.284;2023-08-01T06:20:19;32.25;;;9.52;;
18997;SDS011;9632;51.018;4.284;2023-08-01T06:22:45;23.73;;;9.48;;
18997;SDS011;9632;51.018;4.284;2023-08-01T06:25:11;27.83;;;9.35;;
18997;SDS011;9632;51.018;4.284;2023-08-01T06:27:37;20.55;;;9.05;;
18997;SDS011;9632;51.018;4.284;2023-08-01T06:30:02;18.83;;;8.50;;
18997;SDS011;9632;51.018;4.284;2023-08-01T06:32:29;26.05;;;8.45;;
18997;SDS011;9632;51.018;4.284;2023-08-01T06:34:54;17.83;;;8.07;;
18997;SDS011;9632;51.018;4.284;2023-08-01T06:37:20;20.75;;;8.00;;
18997;SDS011;9632;51.018;4.284;2023-08-01T06:39:45;17.52;;;7.60;;
18997;SDS011;9632;51.018;4.284;2023-08-01T06:42:11;25.38;;;8.88;;
18997;SDS011;9632;51.018;4.284;2023-08-01T06:44:37;22.25;;;7.63;;
18997;SDS011;9632;51.018;4.284;2023-08-01T06:47:02;25.60;;;7.78;;
18997;SDS011;9632;51.018;4.284;2023-08-01T06:49:28;21.40;;;7.15;;
18997;SDS011;9632;51.018;4.284;2023-08-01T06:51:54;23.05;;;7.45;;
18997;SDS011;9632;51.018;4.284;2023-08-01T06:54:19;16.33;;;6.82;;
18997;SDS011;9632;51.018;4.284;2023-08-01T06:56:45;16.75;;;6.55;;
18997;SDS011;9632;51.018;4.284;2023-08-01T06:59:13;24.13;;;7.07;;
18997;SDS011;9632;51.018;4.284;2023-08-01T07:01:40;16.25;;;6.30;;
18997;SDS011;9632;51.018;4.284;2023-08-01T07:04:08;15.93;;;5.60;;
18997;SDS011;9632;51.018;4.284;2023-08-01T07:06:37;15.75;;;6.30;;
18997;SDS011;9632;51.018;4.284;2023-08-01T07:09:03;15.45;;;5.70;;
18997;SDS011;9632;51.018;4.284;2023-08-01T07:11:29;16.50;;;5.00;;
18997;SDS011;9632;51.018;4.284;2023-08-01T07:13:54;15.95;;;5.20;;
18997;SDS011;9632;51.018;4.284;2023-08-01T07:16:20;16.48;;;5.95;;
18997;SDS011;9632;51.018;4.284;2023-08-01T07:18:46;16.35;;;5.43;;
18997;SDS011;9632;51.018;4.284;2023-08-01T07:21:13;14.65;;;5.10;;
18997;SDS011;9632;51.018;4.284;2023-08-01T07:23:39;13.00;;;4.90;;
18997;SDS011;9632;51.018;4.284;2023-08-01T07:26:05;14.55;;;5.15;;
18997;SDS011;9632;51.018;4.284;2023-08-01T07:28:31;16.02;;;6.10;;
18997;SDS011;9632;51.018;4.284;2023-08-01T07:31:04;14.70;;;5.22;;
18997;SDS011;9632;51.018;4.284;2023-08-01T07:33:31;18.60;;;6.05;;
18997;SDS011;9632;51.018;4.284;2023-08-01T07:35:58;16.95;;;6.00;;
18997;SDS011;9632;51.018;4.284;2023-08-01T07:38:23;15.40;;;5.13;;
18997;SDS011;9632;51.018;4.284;2023-08-01T07:40:51;16.75;;;5.22;;
18997;SDS011;9632;51.018;4.284;2023-08-01T07:43:17;13.88;;;5.25;;
18997;SDS011;9632;51.018;4.284;2023-08-01T07:45:44;15.07;;;4.57;;
18997;SDS011;9632;51.018;4.284;2023-08-01T07:48:10;19.85;;;5.63;;
18997;SDS011;9632;51.018;4.284;2023-08-01T07:50:36;13.55;;;5.38;;
18997;SDS011;9632;51.018;4.284;2023-08-01T07:53:01;13.07;;;5.57;;
18997;SDS011;9632;51.018;4.284;2023-08-01T07:55:27;16.33;;;5.97;;
18997;SDS011;9632;51.018;4.284;2023-08-01T07:57:53;18.10;;;6.20;;
18997;SDS011;9632;51.018;4.284;2023-08-01T08:00:18;13.93;;;5.47;;
18997;SDS011;9632;51.018;4.284;2023-08-01T08:02:44;15.60;;;5.50;;
18997;SDS011;9632;51.018;4.284;2023-08-01T08:05:11;14.02;;;5.30;;
18997;SDS011;9632;51.018;4.284;2023-08-01T08:07:37;16.05;;;4.97;;
18997;SDS011;9632;51.018;4.284;2023-08-01T08:10:03;14.55;;;5.40;;
18997;SDS011;9632;51.018;4.284;2023-08-01T08:12:30;15.45;;;5.20;;
18997;SDS011;9632;51.018;4.284;2023-08-01T08:14:56;12.73;;;4.85;;
18997;SDS011;9632;51.018;4.284;2023-08-01T08:17:21;13.90;;;4.95;;
18997;SDS011;9632;51.018;4.284;2023-08-01T08:19:47;12.57;;;5.15;;
18997;SDS011;9632;51.018;4.284;2023-08-01T08:22:13;16.60;;;5.35;;
18997;SDS011;9632;51.018;4.284;2023-08-01T08:24:38;12.98;;;5.05;;
18997;SDS011;9632;51.018;4.284;2023-08-01T08:27:04;15.48;;;5.38;;
18997;SDS011;9632;51.018;4.284;2023-08-01T08:29:30;16.65;;;5.30;;
18997;SDS011;9632;51.018;4.284;2023-08-01T08:31:56;10.60;;;4.47;;
18997;SDS011;9632;51.018;4.284;2023-08-01T08:34:22;15.02;;;5.05;;
18997;SDS011;9632;51.018;4.284;2023-08-01T08:36:48;18.05;;;4.53;;
18997;SDS011;9632;51.018;4.284;2023-08-01T08:39:15;13.38;;;4.50;;
18997;SDS011;9632;51.018;4.284;2023-08-01T08:41:48;15.63;;;4.00;;
18997;SDS011;9632;51.018;4.284;2023-08-01T08:44:16;15.07;;;3.53;;
18997;SDS011;9632;51.018;4.284;2023-08-01T08:46:42;12.23;;;3.42;;
18997;SDS011;9632;51.018;4.284;2023-08-01T08:49:09;15.02;;;3.83;;
18997;SDS011;9632;51.018;4.284;2023-08-01T08:51:36;10.93;;;3.35;;
18997;SDS011;9632;51.018;4.284;2023-08-01T08:54:03;12.27;;;3.47;;
18997;SDS011;9632;51.018;4.284;2023-08-01T08:56:30;17.88;;;3.90;;
18997;SDS011;9632;51.018;4.284;2023-08-01T08:58:56;12.40;;;3.65;;
18997;SDS011;9632;51.018;4.284;2023-08-01T09:01:22;12.80;;;3.78;;
18997;SDS011;9632;51.018;4.284;2023-08-01T09:03:48;10.40;;;3.85;;
18997;SDS011;9632;51.018;4.284;2023-08-01T09:06:17;9.93;;;3.90;;
18997;SDS011;9632;51.018;4.284;2023-08-01T09:08:55;12.40;;;3.80;;
18997;SDS011;9632;51.018;4.284;2023-08-01T09:11:26;12.50;;;4.07;;
18997;SDS011;9632;51.018;4.284;2023-08-01T09:13:52;11.35;;;4.35;;
18997;SDS011;9632;51.018;4.284;2023-08-01T09:16:18;11.02;;;4.43;;
18997;SDS011;9632;51.018;4.284;2023-08-01T09:18:51;12.63;;;4.70;;
18997;SDS011;9632;51.018;4.284;2023-08-01T09:21:21;8.85;;;4.40;;
18997;SDS011;9632;51.018;4.284;2023-08-01T09:23:47;11.95;;;4.80;;
18997;SDS011;9632;51.018;4.284;2023-08-01T09:26:14;14.48;;;4.50;;
18997;SDS011;9632;51.018;4.284;2023-08-01T09:28:40;12.48;;;4.50;;
18997;SDS011;9632;51.018;4.284;2023-08-01T09:31:06;11.57;;;4.85;;
18997;SDS011;9632;51.018;4.284;2023-08-01T09:33:41;12.93;;;4.85;;
18997;SDS011;9632;51.018;4.284;2023-08-01T09:36:07;13.73;;;4.68;;
18997;SDS011;9632;51.018;4.284;2023-08-01T09:38:34;13.77;;;4.50;;
18997;SDS011;9632;51.018;4.284;2023-08-01T09:41:00;14.52;;;4.55;;
18997;SDS011;9632;51.018;4.284;2023-08-01T09:43:36;11.48;;;4.40;;
18997;SDS011;9632;51.018;4.284;2023-08-01T09:46:02;7.72;;;3.95;;
18997;SDS011;9632;51.018;4.284;2023-08-01T09:48:31;11.00;;;3.63;;
18997;SDS011;9632;51.018;4.284;2023-08-01T09:51:10;15.80;;;3.83;;
18997;SDS011;9632;51.018;4.284;2023-08-01T09:53:53;12.32;;;3.60;;
18997;SDS011;9632;51.018;4.284;2023-08-01T09:56:24;9.85;;;3.97;;
18997;SDS011;9632;51.018;4.284;2023-08-01T09:58:52;10.02;;;3.95;;
18997;SDS011;9632;51.018;4.284;2023-08-01T10:01:19;9.98;;;3.22;;
18997;SDS011;9632;51.018;4.284;2023-08-01T10:03:47;8.07;;;3.10;;
18997;SDS011;9632;51.018;4.284;2023-08-01T10:06:16;5.45;;;2.42;;
18997;SDS011;9632;51.018;4.284;2023-08-01T10:08:45;7.35;;;2.80;;
18997;SDS011;9632;51.018;4.284;2023-08-01T10:11:12;9.95;;;2.97;;
18997;SDS011;9632;51.018;4.284;2023-08-01T10:13:39;11.25;;;3.17;;
18997;SDS011;9632;51.018;4.284;2023-08-01T10:16:09;8.48;;;2.60;;
18997;SDS011;9632;51.018;4.284;2023-08-01T10:18:36;12.20;;;3.05;;
18997;SDS011;9632;51.018;4.284;2023-08-01T10:21:04;10.98;;;3.17;;
18997;SDS011;9632;51.018;4.284;2023-08-01T10:23:32;11.63;;;3.10;;
18997;SDS011;9632;51.018;4.284;2023-08-01T10:25:59;10.60;;;3.00;;
18997;SDS011;9632;51.018;4.284;2023-08-01T10:28:35;12.25;;;2.80;;
18997;SDS011;9632;51.018;4.284;2023-08-01T10:31:06;7.43;;;2.65;;
18997;SDS011;9632;51.018;4.284;2023-08-01T10:33:36;8.07;;;2.85;;
18997;SDS011;9632;51.018;4.284;2023-08-01T10:36:16;9.13;;;2.50;;
18997;SDS011;9632;51.018;4.284;2023-08-01T10:41:20;8.85;;;2.58;;
18997;SDS011;9632;51.018;4.284;2023-08-01T10:43:45;12.40;;;2.95;;
18997;SDS011;9632;51.018;4.284;2023-08-01T10:46:11;8.13;;;2.70;;
18997;SDS011;9632;51.018;4.284;2023-08-01T10:48:49;9.57;;;2.90;;
18997;SDS011;9632;51.018;4.284;2023-08-01T10:51:16;7.43;;;2.40;;
18997;SDS011;9632;51.018;4.284;2023-08-01T10:53:41;9.40;;;2.40;;
18997;SDS011;9632;51.018;4.284;2023-08-01T10:56:07;8.43;;;2.33;;
18997;SDS011;9632;51.018;4.284;2023-08-01T10:58:40;10.02;;;2.85;;
18997;SDS011;9632;51.018;4.284;2023-08-01T11:01:05;14.15;;;2.80;;
18997;SDS011;9632;51.018;4.284;2023-08-01T11:03:37;11.02;;;2.80;;
18997;SDS011;9632;51.018;4.284;2023-08-01T11:06:04;7.22;;;2.45;;
18997;SDS011;9632;51.018;4.284;2023-08-01T11:08:37;5.30;;;1.70;;
18997;SDS011;9632;51.018;4.284;2023-08-01T11:11:08;8.23;;;1.85;;
18997;SDS011;9632;51.018;4.284;2023-08-01T11:13:37;8.27;;;2.08;;
18997;SDS011;9632;51.018;4.284;2023-08-01T11:16:03;11.93;;;2.42;;
18997;SDS011;9632;51.018;4.284;2023-08-01T11:18:30;5.72;;;1.90;;
18997;SDS011;9632;51.018;4.284;2023-08-01T11:20:56;11.07;;;2.30;;
18997;SDS011;9632;51.018;4.284;2023-08-01T11:23:27;8.50;;;2.53;;
18997;SDS011;9632;51.018;4.284;2023-08-01T11:25:54;9.60;;;2.55;;
18997;SDS011;9632;51.018;4.284;2023-08-01T11:28:20;8.93;;;2.50;;
18997;SDS011;9632;51.018;4.284;2023-08-01T11:30:48;10.30;;;2.58;;
18997;SDS011;9632;51.018;4.284;2023-08-01T11:33:20;7.00;;;2.20;;
18997;SDS011;9632;51.018;4.284;2023-08-01T11:35:52;9.48;;;2.50;;
18997;SDS011;9632;51.018;4.284;2023-08-01T11:38:28;8.45;;;2.22;;
18997;SDS011;9632;51.018;4.284;2023-08-01T11:40:56;9.48;;;2.50;;
18997;SDS011;9632;51.018;4.284;2023-08-01T11:43:22;7.93;;;2.10;;
18997;SDS011;9632;51.018;4.284;2023-08-01T11:45:51;7.97;;;1.73;;
18997;SDS011;9632;51.018;4.284;2023-08-01T11:48:20;9.68;;;1.95;;
18997;SDS011;9632;51.018;4.284;2023-08-01T11:50:47;4.28;;;1.40;;
18997;SDS011;9632;51.018;4.284;2023-08-01T11:53:19;6.10;;;1.55;;
18997;SDS011;9632;51.018;4.284;2023-08-01T11:55:46;6.47;;;1.77;;
18997;SDS011;9632;51.018;4.284;2023-08-01T11:58:14;5.18;;;1.48;;
18997;SDS011;9632;51.018;4.284;2023-08-01T12:00:40;10.30;;;1.75;;
18997;SDS011;9632;51.018;4.284;2023-08-01T12:03:10;6.82;;;1.92;;
18997;SDS011;9632;51.018;4.284;2023-08-01T12:05:38;8.05;;;1.70;;
18997;SDS011;9632;51.018;4.284;2023-08-01T12:08:14;9.68;;;1.98;;
18997;SDS011;9632;51.018;4.284;2023-08-01T12:10:41;6.05;;;1.65;;
18997;SDS011;9632;51.018;4.284;2023-08-01T12:13:19;6.85;;;1.60;;
18997;SDS011;9632;51.018;4.284;2023-08-01T12:15:46;6.05;;;1.60;;
18997;SDS011;9632;51.018;4.284;2023-08-01T12:18:19;6.00;;;1.60;;
18997;SDS011;9632;51.018;4.284;2023-08-01T12:21:03;5.95;;;1.48;;
18997;SDS011;9632;51.018;4.284;2023-08-01T12:23:30;4.75;;;1.20;;
18997;SDS011;9632;51.018;4.284;2023-08-01T12:25:56;5.03;;;1.13;;
18997;SDS011;9632;51.018;4.284;2023-08-01T12:28:22;3.95;;;1.05;;
18997;SDS011;9632;51.018;4.284;2023-08-01T12:30:47;7.90;;;1.40;;
18997;SDS011;9632;51.018;4.284;2023-08-01T12:33:14;4.07;;;1.10;;
18997;SDS011;9632;51.018;4.284;2023-08-01T12:35:40;5.85;;;1.33;;
18997;SDS011;9632;51.018;4.284;2023-08-01T12:38:06;7.00;;;1.10;;
18997;SDS011;9632;51.018;4.284;2023-08-01T12:40:32;7.35;;;1.35;;
18997;SDS011;9632;51.018;4.284;2023-08-01T12:42:58;6.15;;;1.13;;
18997;SDS011;9632;51.018;4.284;2023-08-01T12:45:24;5.88;;;1.58;;
18997;SDS011;9632;51.018;4.284;2023-08-01T12:47:49;6.72;;;1.13;;
18997;SDS011;9632;51.018;4.284;2023-08-01T12:50:15;3.35;;;1.23;;
18997;SDS011;9632;51.018;4.284;2023-08-01T12:52:41;5.55;;;1.00;;
18997;SDS011;9632;51.018;4.284;2023-08-01T12:55:07;6.95;;;1.33;;
18997;SDS011;9632;51.018;4.284;2023-08-01T12:57:33;5.07;;;0.95;;
18997;SDS011;9632;51.018;4.284;2023-08-01T12:59:59;7.20;;;1.17;;
18997;SDS011;9632;51.018;4.284;2023-08-01T13:02:26;5.75;;;1.30;;
18997;SDS011;9632;51.018;4.284;2023-08-01T13:04:52;7.07;;;1.23;;
18997;SDS011;9632;51.018;4.284;2023-08-01T13:07:18;8.38;;;1.38;;
18997;SDS011;9632;51.018;4.284;2023-08-01T13:09:43;6.53;;;1.45;;
18997;SDS011;9632;51.018;4.284;2023-08-01T13:12:09;5.65;;;1.38;;
18997;SDS011;9632;51.018;4.284;2023-08-01T13:14:34;7.75;;;1.48;;
18997;SDS011;9632;51.018;4.284;2023-08-01T13:17:00;7.55;;;1.58;;
18997;SDS011;9632;51.018;4.284;2023-08-01T13:19:27;4.00;;;1.15;;
18997;SDS011;9632;51.018;4.284;2023-08-01T13:21:52;6.85;;;1.60;;
18997;SDS011;9632;51.018;4.284;2023-08-01T13:24:18;7.75;;;1.40;;
18997;SDS011;9632;51.018;4.284;2023-08-01T13:26:44;8.10;;;1.70;;
18997;SDS011;9632;51.018;4.284;2023-08-01T13:29:10;7.65;;;1.50;;
18997;SDS011;9632;51.018;4.284;2023-08-01T13:31:35;8.00;;;1.45;;
18997;SDS011;9632;51.018;4.284;2023-08-01T13:34:01;8.10;;;1.50;;
18997;SDS011;9632;51.018;4.284;2023-08-01T13:36:27;6.93;;;1.38;;
18997;SDS011;9632;51.018;4.284;2023-08-01T13:38:52;4.32;;;1.27;;
18997;SDS011;9632;51.018;4.284;2023-08-01T13:41:18;6.45;;;1.40;;
18997;SDS011;9632;51.018;4.284;2023-08-01T13:43:44;5.72;;;1.35;;
18997;SDS011;9632;51.018;4.284;2023-08-01T13:46:11;7.40;;;1.90;;
18997;SDS011;9632;51.018;4.284;2023-08-01T13:48:39;5.40;;;1.20;;
18997;SDS011;9632;51.018;4.284;2023-08-01T13:51:06;7.80;;;1.70;;
18997;SDS011;9632;51.018;4.284;2023-08-01T13:53:31;9.02;;;1.65;;
18997;SDS011;9632;51.018;4.284;2023-08-01T13:55:57;9.60;;;1.63;;
18997;SDS011;9632;51.018;4.284;2023-08-01T13:58:23;5.45;;;1.50;;
18997;SDS011;9632;51.018;4.284;2023-08-01T14:00:48;8.23;;;1.70;;
18997;SDS011;9632;51.018;4.284;2023-08-01T14:03:14;6.68;;;1.58;;
18997;SDS011;9632;51.018;4.284;2023-08-01T14:05:40;8.80;;;1.50;;
18997;SDS011;9632;51.018;4.284;2023-08-01T14:08:05;7.88;;;1.75;;
18997;SDS011;9632;51.018;4.284;2023-08-01T14:10:31;10.77;;;1.40;;
18997;SDS011;9632;51.018;4.284;2023-08-01T14:12:56;8.35;;;1.23;;
18997;SDS011;9632;51.018;4.284;2023-08-01T14:15:22;4.78;;;1.10;;
18997;SDS011;9632;51.018;4.284;2023-08-01T14:17:48;8.48;;;1.50;;
18997;SDS011;9632;51.018;4.284;2023-08-01T14:20:13;7.95;;;1.30;;
18997;SDS011;9632;51.018;4.284;2023-08-01T14:22:40;6.00;;;1.55;;
18997;SDS011;9632;51.018;4.284;2023-08-01T14:25:07;6.85;;;1.20;;
18997;SDS011;9632;51.018;4.284;2023-08-01T14:27:34;3.47;;;1.17;;
18997;SDS011;9632;51.018;4.284;2023-08-01T14:29:59;8.90;;;1.60;;
18997;SDS011;9632;51.018;4.284;2023-08-01T14:32:27;5.40;;;1.10;;
18997;SDS011;9632;51.018;4.284;2023-08-01T14:34:52;6.35;;;1.30;;
18997;SDS011;9632;51.018;4.284;2023-08-01T14:37:18;4.75;;;1.52;;
18997;SDS011;9632;51.018;4.284;2023-08-01T14:39:44;8.40;;;1.48;;
18997;SDS011;9632;51.018;4.284;2023-08-01T14:42:09;6.38;;;1.40;;
18997;SDS011;9632;51.018;4.284;2023-08-01T14:44:35;8.30;;;1.70;;
18997;SDS011;9632;51.018;4.284;2023-08-01T14:47:00;6.25;;;1.40;;
18997;SDS011;9632;51.018;4.284;2023-08-01T14:49:26;7.32;;;1.42;;
18997;SDS011;9632;51.018;4.284;2023-08-01T14:51:54;8.07;;;1.42;;
18997;SDS011;9632;51.018;4.284;2023-08-01T14:54:20;6.72;;;1.10;;